Tuscarora, New York
Current Conditions -  °F | °C
As of 11:54 PM on Saturday 25 Oct 2014 (Local Time) from KDSV Reporting Station
Light Rain Light Rain  
Wind Chill: 12°   Ceiling: Unl
Heat Index: 12°   Visibility: 10mi
Dew Point:   Wind: 15mph
Humidity: 69%   Direction: 320°NW
Pressure: 29.64"   Gusts: NA
Location:  42.6879°N, 77.8772°W
Report Text: KDSV 260354Z AUTO 32013KT 10SM -RA FEW044 SCT055 12/06 A2964 RMK AO2 PK WND 28034/0315 LTG DSNT E AND SE RAB16 SLP044 P0000 T01170061
Loading
Personal Weather Stations






























Interactive Weather Map
Tropical Storm Tracking
New forecast layout! Learn more

10-Day Weather Forecast

Advertisements
Track Severe Weather on mobile